createdAt,value
2019-03-21T00:01:43.799Z,3.20
2019-03-21T00:04:14.758Z,3.20
2019-03-21T00:06:46.393Z,3.40
2019-03-21T00:09:18.361Z,3.40
2019-03-21T00:11:59.134Z,3.30
2019-03-21T00:14:33.877Z,3.40
2019-03-21T00:17:05.225Z,3.40
2019-03-21T00:19:36.470Z,3.20
2019-03-21T00:22:07.281Z,3.30
2019-03-21T00:24:38.642Z,3.20
2019-03-21T00:27:09.572Z,3.20
2019-03-21T00:29:41.259Z,3.20
2019-03-21T00:32:12.390Z,3.20
2019-03-21T00:34:43.326Z,3.10
2019-03-21T00:37:14.958Z,3.10
2019-03-21T00:39:46.101Z,3.20
2019-03-21T00:42:17.670Z,3.10
2019-03-21T00:44:48.653Z,3.20
2019-03-21T00:47:19.637Z,3.20
2019-03-21T00:49:50.583Z,3.20
2019-03-21T00:52:21.685Z,3.30
2019-03-21T00:54:53.051Z,3.30
2019-03-21T00:57:23.737Z,3.40
2019-03-21T00:59:54.420Z,3.50
2019-03-21T01:02:25.941Z,3.20
2019-03-21T01:04:57.254Z,3.10
2019-03-21T01:07:28.595Z,3.10
2019-03-21T01:09:59.878Z,3.00
2019-03-21T01:12:49.618Z,2.80
2019-03-21T01:15:20.666Z,2.80
2019-03-21T01:17:50.945Z,3.00
2019-03-21T01:20:21.229Z,3.00
2019-03-21T01:22:51.614Z,2.90
2019-03-21T01:25:25.368Z,3.00
2019-03-21T01:27:55.713Z,2.90
2019-03-21T01:30:26.043Z,3.00
2019-03-21T01:32:56.253Z,2.90
2019-03-21T01:35:26.618Z,2.60
2019-03-21T01:37:57.349Z,2.40
2019-03-21T01:40:28.546Z,2.20
2019-03-21T01:42:59.765Z,2.10
2019-03-21T01:45:30.582Z,2.00
2019-03-21T01:48:01.621Z,1.80
2019-03-21T01:50:32.504Z,1.80
2019-03-21T01:53:03.188Z,1.90
2019-03-21T01:55:34.114Z,1.70
2019-03-21T01:58:04.775Z,1.60
2019-03-21T02:00:37.997Z,1.50
2019-03-21T02:03:08.409Z,1.70
2019-03-21T02:05:39.011Z,1.50
2019-03-21T02:08:10.001Z,1.70
2019-03-21T02:10:40.777Z,1.80
2019-03-21T02:13:12.350Z,1.70
2019-03-21T02:15:42.917Z,1.90
2019-03-21T02:18:13.452Z,1.70
2019-03-21T02:20:44.086Z,1.50
2019-03-21T02:23:15.486Z,1.40
2019-03-21T02:25:46.521Z,1.30
2019-03-21T02:28:17.762Z,1.20
2019-03-21T02:30:48.275Z,1.20
2019-03-21T02:33:27.911Z,1.40
2019-03-21T02:35:58.983Z,1.30
2019-03-21T02:38:30.026Z,1.40
2019-03-21T02:41:02.309Z,1.40
2019-03-21T02:43:33.397Z,1.30
2019-03-21T02:46:23.119Z,1.30
2019-03-21T02:48:53.823Z,1.10
2019-03-21T02:51:24.576Z,1.40
2019-03-21T02:53:55.522Z,1.80
2019-03-21T02:56:26.392Z,1.90
2019-03-21T02:58:57.436Z,1.80
2019-03-21T03:01:27.712Z,1.80
2019-03-21T03:03:58.012Z,1.80
2019-03-21T03:06:28.293Z,1.70
2019-03-21T03:08:58.914Z,1.80
2019-03-21T03:11:29.276Z,1.80
2019-03-21T03:13:59.627Z,1.90
2019-03-21T03:16:29.989Z,1.90
2019-03-21T03:19:00.319Z,1.70
2019-03-21T03:21:30.604Z,1.50
2019-03-21T03:24:01.326Z,1.40
2019-03-21T03:26:31.938Z,1.20
2019-03-21T03:29:02.831Z,1.20
2019-03-21T03:31:34.217Z,1.10
2019-03-21T03:34:05.334Z,1.20
2019-03-21T03:36:35.827Z,1.30
2019-03-21T03:39:08.547Z,1.30
2019-03-21T03:41:39.343Z,1.40
2019-03-21T03:44:09.672Z,1.30
2019-03-21T03:46:39.945Z,1.30
2019-03-21T03:49:10.897Z,1.20
2019-03-21T03:51:41.803Z,1.30
2019-03-21T03:54:12.084Z,1.30
2019-03-21T03:56:42.734Z,1.30
2019-03-21T03:59:13.355Z,1.10
2019-03-21T04:02:11.121Z,1.20
2019-03-21T04:04:55.290Z,1.20
2019-03-21T04:07:44.586Z,1.30
2019-03-21T04:10:18.578Z,1.30
2019-03-21T04:12:49.248Z,1.30
2019-03-21T04:15:19.666Z,1.40
2019-03-21T04:17:49.941Z,1.40
2019-03-21T04:20:21.691Z,1.50
2019-03-21T04:22:52.110Z,1.50
2019-03-21T04:25:25.991Z,1.50
2019-03-21T04:27:56.811Z,1.50
2019-03-21T04:30:27.239Z,1.50
2019-03-21T04:32:57.527Z,1.40
2019-03-21T04:35:27.825Z,1.60
2019-03-21T04:37:58.039Z,1.70
2019-03-21T04:40:28.594Z,1.70
2019-03-21T04:42:59.286Z,1.70
2019-03-21T04:45:29.633Z,1.70
2019-03-21T04:47:59.878Z,1.80
2019-03-21T04:50:30.916Z,1.80
2019-03-21T04:53:02.268Z,2.10
2019-03-21T04:55:33.006Z,2.10
2019-03-21T04:58:03.627Z,2.10
2019-03-21T05:00:34.918Z,1.90
2019-03-21T05:03:06.242Z,1.90
2019-03-21T05:05:36.858Z,1.80
2019-03-21T05:08:07.486Z,1.80
2019-03-21T05:10:38.422Z,1.80
2019-03-21T05:13:09.058Z,1.70
2019-03-21T05:15:40.510Z,1.70
2019-03-21T05:18:17.587Z,1.60
2019-03-21T05:20:48.324Z,1.60
2019-03-21T05:23:19.446Z,1.60
2019-03-21T05:25:50.094Z,1.60
2019-03-21T05:28:20.625Z,1.60
2019-03-21T05:30:57.914Z,1.60
2019-03-21T05:33:28.618Z,1.60
2019-03-21T05:35:58.882Z,1.60
2019-03-21T05:38:29.670Z,1.50
2019-03-21T05:41:00.313Z,1.50
2019-03-21T05:43:34.629Z,1.60
2019-03-21T05:46:05.046Z,1.50
2019-03-21T05:48:35.341Z,1.50
2019-03-21T05:51:05.737Z,1.50
2019-03-21T05:53:36.092Z,1.50
2019-03-21T05:56:06.526Z,1.50
2019-03-21T05:58:36.903Z,1.50
2019-03-21T06:01:07.352Z,1.40
2019-03-21T06:03:47.369Z,1.20
2019-03-21T06:06:24.648Z,1.10
2019-03-21T06:08:55.000Z,1.00
2019-03-21T06:11:25.663Z,1.10
2019-03-21T06:13:56.290Z,1.10
2019-03-21T06:16:36.988Z,1.30
2019-03-21T06:19:36.438Z,1.50
2019-03-21T06:22:38.762Z,1.70
2019-03-21T06:25:54.998Z,1.80
2019-03-21T06:28:25.348Z,1.90
2019-03-21T06:30:55.730Z,1.90
2019-03-21T06:33:26.589Z,2.00
2019-03-21T06:35:57.532Z,2.00
2019-03-21T06:38:28.872Z,2.00
2019-03-21T06:40:59.376Z,2.00
2019-03-21T06:43:30.002Z,2.00
2019-03-21T06:46:00.313Z,2.00
2019-03-21T06:48:30.575Z,2.10
2019-03-21T06:51:00.977Z,2.10
2019-03-21T06:53:31.254Z,2.10
2019-03-21T06:56:01.613Z,2.20
2019-03-21T06:58:32.043Z,2.20
2019-03-21T07:01:02.381Z,2.20
2019-03-21T07:03:32.781Z,2.10
2019-03-21T07:06:08.914Z,2.20
2019-03-21T07:08:39.489Z,2.20
2019-03-21T07:11:10.281Z,2.20
2019-03-21T07:13:40.571Z,2.30
2019-03-21T07:16:10.972Z,2.60
2019-03-21T07:18:41.756Z,3.00
2019-03-21T07:21:12.148Z,3.20
2019-03-21T07:23:42.814Z,3.30
2019-03-21T07:26:13.543Z,3.30
2019-03-21T07:28:43.746Z,3.10
2019-03-21T07:31:14.334Z,3.10
2019-03-21T07:33:44.817Z,3.30
2019-03-21T07:36:15.467Z,3.40
2019-03-21T07:38:45.754Z,3.40
2019-03-21T07:41:16.350Z,3.30
2019-03-21T07:43:46.566Z,3.40
2019-03-21T07:46:17.275Z,3.40
2019-03-21T07:48:47.838Z,3.70
2019-03-21T07:51:18.704Z,4.00
2019-03-21T07:53:49.322Z,4.20
2019-03-21T07:56:19.908Z,5.10
2019-03-21T07:58:51.074Z,6.90
2019-03-21T08:01:21.694Z,8.00
2019-03-21T08:03:52.599Z,7.60
2019-03-21T08:06:22.999Z,7.10
2019-03-21T08:08:53.871Z,6.90
2019-03-21T08:11:24.249Z,7.20
2019-03-21T08:13:54.450Z,7.60
2019-03-21T08:16:24.855Z,7.50
2019-03-21T08:18:55.126Z,7.30
2019-03-21T08:21:25.563Z,7.50
2019-03-21T08:23:56.038Z,8.60
2019-03-21T08:26:26.394Z,9.40
2019-03-21T08:28:56.740Z,9.70
2019-03-21T08:31:27.035Z,11.00
2019-03-21T08:33:58.034Z,12.90
2019-03-21T08:36:28.863Z,14.20
2019-03-21T08:38:59.902Z,15.00
2019-03-21T08:41:30.138Z,16.40
2019-03-21T08:44:02.521Z,17.00
2019-03-21T08:46:33.181Z,16.90
2019-03-21T08:49:03.892Z,16.10
2019-03-21T08:51:34.586Z,16.40
2019-03-21T08:54:05.026Z,17.00
2019-03-21T08:56:35.719Z,17.50
2019-03-21T08:59:06.109Z,18.40
2019-03-21T09:01:36.774Z,18.60
2019-03-21T09:04:26.112Z,18.40
2019-03-21T09:06:56.415Z,18.90
2019-03-21T09:09:26.739Z,18.50
2019-03-21T09:11:57.086Z,19.50
2019-03-21T09:14:27.358Z,20.00
2019-03-21T09:16:57.745Z,19.40
2019-03-21T09:19:28.029Z,19.10
2019-03-21T09:21:58.321Z,19.20
2019-03-21T09:24:28.599Z,20.30
2019-03-21T09:26:59.623Z,19.10
2019-03-21T09:29:30.145Z,18.90
2019-03-21T09:32:00.708Z,19.60
2019-03-21T09:34:31.131Z,20.20
2019-03-21T09:37:03.884Z,20.90
2019-03-21T09:39:33.948Z,20.80
2019-03-21T09:42:04.315Z,21.10
2019-03-21T09:44:35.214Z,21.40
2019-03-21T09:47:05.879Z,21.50
2019-03-21T09:49:36.490Z,22.20
2019-03-21T09:52:07.140Z,22.10
2019-03-21T09:54:37.713Z,21.90
2019-03-21T09:57:08.181Z,21.70
2019-03-21T09:59:38.639Z,22.60
2019-03-21T10:02:09.097Z,23.20
2019-03-21T10:04:39.404Z,23.60
2019-03-21T10:07:11.493Z,23.30
2019-03-21T10:09:41.939Z,22.30
2019-03-21T10:12:12.858Z,22.50
2019-03-21T10:14:43.146Z,22.90
2019-03-21T10:17:13.818Z,22.00
2019-03-21T10:19:45.119Z,21.90
2019-03-21T10:22:15.863Z,21.50
2019-03-21T10:24:46.390Z,21.90
2019-03-21T10:27:16.774Z,22.70
2019-03-21T10:29:47.454Z,22.40
2019-03-21T10:32:18.867Z,21.70
2019-03-21T10:34:49.219Z,21.30
2019-03-21T10:37:20.258Z,21.10
2019-03-21T10:39:50.656Z,21.90
2019-03-21T10:42:21.226Z,22.20
2019-03-21T10:44:53.286Z,22.50
2019-03-21T10:47:24.018Z,22.20
2019-03-21T10:49:54.606Z,22.40
2019-03-21T10:52:25.591Z,22.40
2019-03-21T10:54:56.034Z,22.10
2019-03-21T10:57:26.582Z,22.40
2019-03-21T10:59:57.152Z,22.70
2019-03-21T11:02:27.508Z,23.00
2019-03-21T11:04:57.827Z,21.20
2019-03-21T11:07:28.067Z,21.60
2019-03-21T11:09:58.713Z,21.60
2019-03-21T11:12:29.070Z,22.20
2019-03-21T11:14:59.786Z,22.00
2019-03-21T11:17:30.176Z,21.70
2019-03-21T11:20:00.929Z,21.50
2019-03-21T11:22:31.593Z,21.50
2019-03-21T11:25:05.237Z,21.70
2019-03-21T11:27:35.935Z,21.80
2019-03-21T11:30:15.588Z,21.60
2019-03-21T11:32:39.698Z,21.40
2019-03-21T11:35:11.556Z,21.70
2019-03-21T11:37:42.690Z,21.10
2019-03-21T11:40:13.062Z,21.10
2019-03-21T11:42:44.253Z,21.00
2019-03-21T11:45:15.218Z,21.30
2019-03-21T11:47:46.145Z,21.60
2019-03-21T11:50:16.442Z,21.80
2019-03-21T11:52:47.292Z,21.90
2019-03-21T11:55:19.382Z,22.00
2019-03-21T11:57:49.816Z,21.70
2019-03-21T12:00:20.686Z,21.80
2019-03-21T12:02:51.410Z,22.00
2019-03-21T12:05:21.695Z,22.50
2019-03-21T12:07:51.908Z,22.20
2019-03-21T12:10:22.229Z,21.30
2019-03-21T12:12:52.716Z,21.40
2019-03-21T12:15:23.219Z,21.80
2019-03-21T12:17:53.673Z,21.90
2019-03-21T12:20:34.387Z,22.00
2019-03-21T12:23:04.814Z,21.90
2019-03-21T12:25:36.042Z,22.00
2019-03-21T12:28:06.410Z,22.00
2019-03-21T12:30:38.569Z,22.20
2019-03-21T12:33:10.195Z,22.40
2019-03-21T12:35:40.491Z,22.20
2019-03-21T12:38:11.258Z,21.70
2019-03-21T12:40:41.559Z,20.90
2019-03-21T12:43:12.524Z,20.40
2019-03-21T12:45:43.082Z,21.00
2019-03-21T12:48:13.731Z,21.00
2019-03-21T12:50:44.894Z,20.90
2019-03-21T12:53:15.182Z,21.20
2019-03-21T12:55:45.778Z,21.00
2019-03-21T12:58:16.399Z,21.00
2019-03-21T13:00:47.068Z,21.00
2019-03-21T13:03:17.526Z,20.50
2019-03-21T13:05:48.010Z,20.80
2019-03-21T13:08:18.874Z,20.80
2019-03-21T13:10:49.394Z,21.00
2019-03-21T13:13:20.395Z,21.00
2019-03-21T13:15:51.231Z,20.80
2019-03-21T13:18:21.798Z,20.70
2019-03-21T13:20:52.817Z,20.20
2019-03-21T13:23:23.490Z,20.00
2019-03-21T13:25:54.451Z,19.90
2019-03-21T13:28:25.118Z,19.80
2019-03-21T13:30:55.395Z,19.30
2019-03-21T13:33:25.775Z,18.80
2019-03-21T13:35:56.695Z,18.80
2019-03-21T13:38:27.149Z,18.30
2019-03-21T13:40:57.674Z,18.10
2019-03-21T13:43:28.061Z,18.10
2019-03-21T13:45:58.313Z,18.20
2019-03-21T13:48:29.241Z,18.00
2019-03-21T13:50:59.869Z,17.80
2019-03-21T13:53:30.394Z,17.70
2019-03-21T13:56:00.651Z,17.50
2019-03-21T13:58:30.966Z,17.30
2019-03-21T14:01:01.379Z,17.20
2019-03-21T14:03:31.683Z,17.10
2019-03-21T14:06:02.330Z,17.00
2019-03-21T14:08:32.691Z,16.80
2019-03-21T14:11:03.070Z,16.70
2019-03-21T14:13:33.302Z,16.70
2019-03-21T14:16:03.734Z,16.60
2019-03-21T14:18:34.283Z,16.50
2019-03-21T14:21:04.686Z,16.60
2019-03-21T14:23:43.270Z,16.70
2019-03-21T14:26:07.156Z,16.70
2019-03-21T14:28:37.810Z,16.90
2019-03-21T14:31:08.705Z,17.00
2019-03-21T14:33:39.451Z,16.90
2019-03-21T14:36:09.815Z,16.90
2019-03-21T14:38:40.184Z,16.70
2019-03-21T14:41:10.535Z,16.60
2019-03-21T14:43:41.490Z,16.70
2019-03-21T14:46:11.866Z,16.80
2019-03-21T14:48:43.083Z,16.90
2019-03-21T14:51:13.455Z,17.00
2019-03-21T14:53:44.534Z,16.90
2019-03-21T14:56:15.358Z,16.90
2019-03-21T14:58:46.052Z,16.90
2019-03-21T15:01:19.799Z,16.90
2019-03-21T15:03:50.318Z,16.80
2019-03-21T15:06:20.964Z,16.80
2019-03-21T15:08:54.858Z,16.70
2019-03-21T15:11:26.180Z,16.70
2019-03-21T15:13:56.746Z,16.60
2019-03-21T15:16:27.040Z,16.70
2019-03-21T15:18:57.250Z,16.50
2019-03-21T15:21:27.984Z,16.50
2019-03-21T15:23:59.849Z,16.60
2019-03-21T15:26:30.233Z,16.40
2019-03-21T15:29:00.859Z,16.40
2019-03-21T15:31:31.862Z,16.40
2019-03-21T15:34:03.160Z,16.30
2019-03-21T15:36:34.085Z,16.40
2019-03-21T15:39:06.543Z,16.40
2019-03-21T15:41:37.487Z,16.40
2019-03-21T15:44:07.862Z,16.50
2019-03-21T15:46:38.234Z,16.50
2019-03-21T15:49:08.656Z,16.40
2019-03-21T15:51:39.113Z,16.40
2019-03-21T15:54:09.454Z,16.40
2019-03-21T15:56:39.712Z,16.30
2019-03-21T15:59:10.691Z,16.30
2019-03-21T16:01:41.002Z,16.30
2019-03-21T16:04:11.239Z,16.30
2019-03-21T16:06:41.646Z,16.30
2019-03-21T16:09:11.966Z,16.20
2019-03-21T16:11:42.347Z,16.20
2019-03-21T16:14:12.937Z,16.20
2019-03-21T16:16:43.288Z,16.00
2019-03-21T16:19:14.262Z,16.00
2019-03-21T16:21:44.713Z,15.90
2019-03-21T16:24:18.806Z,15.80
2019-03-21T16:26:49.603Z,15.80
2019-03-21T16:29:20.579Z,15.80
2019-03-21T16:31:51.545Z,15.70
2019-03-21T16:34:22.270Z,15.70
2019-03-21T16:36:53.315Z,15.60
2019-03-21T16:39:23.959Z,15.60
2019-03-21T16:41:54.718Z,15.50
2019-03-21T16:44:25.376Z,15.40
2019-03-21T16:46:56.014Z,15.40
2019-03-21T16:49:26.833Z,15.30
2019-03-21T16:51:57.371Z,15.20
2019-03-21T16:54:30.241Z,15.20
2019-03-21T16:57:00.802Z,15.10
2019-03-21T16:59:31.545Z,15.10
2019-03-21T17:02:02.255Z,15.00
2019-03-21T17:04:32.663Z,14.90
2019-03-21T17:07:02.895Z,14.90
2019-03-21T17:09:35.512Z,14.90
2019-03-21T17:12:05.878Z,14.80
2019-03-21T17:14:36.456Z,14.50
2019-03-21T17:17:06.841Z,14.40
2019-03-21T17:19:37.261Z,14.20
2019-03-21T17:22:07.895Z,14.10
2019-03-21T17:24:38.834Z,13.90
2019-03-21T17:27:09.186Z,13.80
2019-03-21T17:29:40.131Z,13.70
2019-03-21T17:32:11.155Z,13.50
2019-03-21T17:34:41.847Z,13.20
2019-03-21T17:37:12.255Z,13.10
2019-03-21T17:39:42.572Z,13.10
2019-03-21T17:42:12.953Z,13.30
2019-03-21T17:44:44.816Z,13.10
2019-03-21T17:47:15.314Z,12.80
2019-03-21T17:49:45.865Z,12.60
2019-03-21T17:52:16.531Z,12.50
2019-03-21T17:54:47.196Z,12.30
2019-03-21T17:57:17.496Z,12.20
2019-03-21T17:59:47.982Z,12.00
2019-03-21T18:02:18.344Z,12.00
2019-03-21T18:04:50.046Z,11.90
2019-03-21T18:07:20.525Z,11.80
2019-03-21T18:09:51.181Z,11.60
2019-03-21T18:12:21.753Z,11.40
2019-03-21T18:14:52.655Z,11.20
2019-03-21T18:17:23.310Z,11.00
2019-03-21T18:19:53.902Z,11.00
2019-03-21T18:22:24.288Z,10.90
2019-03-21T18:24:54.992Z,10.70
2019-03-21T18:27:25.660Z,10.50
2019-03-21T18:29:56.403Z,10.50
2019-03-21T18:32:27.162Z,10.50
2019-03-21T18:34:58.152Z,10.30
2019-03-21T18:37:28.498Z,10.20
2019-03-21T18:39:58.802Z,10.20
2019-03-21T18:42:29.162Z,10.00
2019-03-21T18:45:05.172Z,9.90
2019-03-21T18:47:35.516Z,9.80
2019-03-21T18:50:09.168Z,9.90
2019-03-21T18:52:39.596Z,9.70
2019-03-21T18:55:10.790Z,9.60
2019-03-21T18:57:41.141Z,9.40
2019-03-21T19:00:12.643Z,9.30
2019-03-21T19:02:43.006Z,9.20
2019-03-21T19:05:13.454Z,9.20
2019-03-21T19:07:44.097Z,9.10
2019-03-21T19:10:15.963Z,9.00
2019-03-21T19:12:46.586Z,8.90
2019-03-21T19:15:17.435Z,8.70
2019-03-21T19:17:47.830Z,8.50
2019-03-21T19:20:18.488Z,8.50
2019-03-21T19:22:49.034Z,8.40
2019-03-21T19:25:19.887Z,8.30
2019-03-21T19:27:50.711Z,8.20
2019-03-21T19:30:21.215Z,8.10
2019-03-21T19:32:52.164Z,8.00
2019-03-21T19:35:22.847Z,7.80
2019-03-21T19:37:53.261Z,7.70
2019-03-21T19:40:23.567Z,7.70
2019-03-21T19:42:53.857Z,7.70
2019-03-21T19:45:24.283Z,7.80
2019-03-21T19:47:54.671Z,7.70
2019-03-21T19:50:28.038Z,7.50
2019-03-21T19:52:58.330Z,7.60
2019-03-21T19:55:31.083Z,7.50
2019-03-21T19:58:01.401Z,7.40
2019-03-21T20:00:35.282Z,7.30
2019-03-21T20:03:05.806Z,7.40
2019-03-21T20:05:36.524Z,7.30
2019-03-21T20:08:07.174Z,7.30
2019-03-21T20:10:39.668Z,7.10
2019-03-21T20:13:10.610Z,7.10
2019-03-21T20:15:44.336Z,7.10
2019-03-21T20:18:14.807Z,7.20
2019-03-21T20:20:47.692Z,7.30
2019-03-21T20:23:21.139Z,7.20
2019-03-21T20:25:51.799Z,7.30
2019-03-21T20:28:22.413Z,7.20
2019-03-21T20:30:53.066Z,7.30
2019-03-21T20:33:23.608Z,7.20
2019-03-21T20:35:53.931Z,7.20
2019-03-21T20:38:24.307Z,7.10
2019-03-21T20:40:55.024Z,7.10
2019-03-21T20:43:25.568Z,7.00
2019-03-21T20:45:56.109Z,6.90
2019-03-21T20:48:31.083Z,6.90
2019-03-21T20:51:01.512Z,6.80
2019-03-21T20:53:31.912Z,6.80
2019-03-21T20:56:02.302Z,6.70
2019-03-21T20:58:32.990Z,6.60
2019-03-21T21:01:03.492Z,6.60
2019-03-21T21:03:34.113Z,6.60
2019-03-21T21:06:05.018Z,6.60
2019-03-21T21:08:35.233Z,6.50
2019-03-21T21:11:06.522Z,6.40
2019-03-21T21:13:37.634Z,6.40
2019-03-21T21:16:08.304Z,6.40
2019-03-21T21:18:38.678Z,6.30
2019-03-21T21:21:10.540Z,6.40
2019-03-21T21:23:40.915Z,6.40
2019-03-21T21:26:11.300Z,6.50
2019-03-21T21:28:41.670Z,6.50
2019-03-21T21:31:14.806Z,6.40
2019-03-21T21:33:49.505Z,6.30
2019-03-21T21:36:22.212Z,6.50
2019-03-21T21:38:52.323Z,6.40
2019-03-21T21:41:22.804Z,6.40
2019-03-21T21:43:53.028Z,6.30
2019-03-21T21:46:23.616Z,6.30
2019-03-21T21:48:53.887Z,6.20
2019-03-21T21:51:24.486Z,6.20
2019-03-21T21:53:54.875Z,6.20
2019-03-21T21:56:25.808Z,6.10
2019-03-21T21:58:56.273Z,6.00
2019-03-21T22:01:26.895Z,6.20
2019-03-21T22:04:04.643Z,6.20
2019-03-21T22:06:30.932Z,6.40
2019-03-21T22:09:01.730Z,6.40
2019-03-21T22:11:32.015Z,6.20
2019-03-21T22:14:02.379Z,5.90
2019-03-21T22:16:32.698Z,5.80
2019-03-21T22:19:03.314Z,5.70
2019-03-21T22:21:33.690Z,5.70
2019-03-21T22:24:04.064Z,5.50
2019-03-21T22:26:34.273Z,5.70
2019-03-21T22:29:04.786Z,5.50
2019-03-21T22:31:35.214Z,5.30
2019-03-21T22:34:05.595Z,5.20
2019-03-21T22:36:35.978Z,5.20
2019-03-21T22:39:08.009Z,5.10
2019-03-21T22:41:38.299Z,4.90
2019-03-21T22:44:08.729Z,4.90
2019-03-21T22:46:39.090Z,4.80
2019-03-21T22:49:09.416Z,4.80
2019-03-21T22:51:39.770Z,5.10
2019-03-21T22:54:10.067Z,5.20
2019-03-21T22:56:41.515Z,5.30
2019-03-21T22:59:12.262Z,5.20
2019-03-21T23:01:42.902Z,5.20
2019-03-21T23:04:13.759Z,5.20
2019-03-21T23:06:44.111Z,5.00
2019-03-21T23:09:14.722Z,5.00
2019-03-21T23:11:45.003Z,5.20
2019-03-21T23:14:15.295Z,5.20
2019-03-21T23:16:45.946Z,5.20
2019-03-21T23:19:16.618Z,5.40
2019-03-21T23:21:46.979Z,5.30
2019-03-21T23:24:17.607Z,5.20
2019-03-21T23:26:52.821Z,5.30
2019-03-21T23:29:20.644Z,5.20
2019-03-21T23:31:51.463Z,5.10
2019-03-21T23:34:21.938Z,5.20
2019-03-21T23:36:52.295Z,5.10
2019-03-21T23:39:22.857Z,5.10
2019-03-21T23:41:53.413Z,5.20
2019-03-21T23:44:23.912Z,5.10
2019-03-21T23:46:54.199Z,5.10
2019-03-21T23:49:24.473Z,4.90
2019-03-21T23:51:54.687Z,5.00
2019-03-21T23:54:25.346Z,5.00
2019-03-21T23:57:04.006Z,4.90
2019-03-21T23:59:27.866Z,5.20
